createdAt,value
2023-03-05T00:01:43.411Z,3.40
2023-03-05T00:04:15.880Z,3.45
2023-03-05T00:06:45.184Z,3.45
2023-03-05T00:09:14.971Z,3.47
2023-03-05T00:11:43.799Z,3.48
2023-03-05T00:14:13.206Z,3.48
2023-03-05T00:16:42.100Z,3.45
2023-03-05T00:19:11.604Z,3.46
2023-03-05T00:21:42.126Z,3.45
2023-03-05T00:24:17.565Z,3.44
2023-03-05T00:26:48.006Z,3.46
2023-03-05T00:29:19.424Z,3.43
2023-03-05T00:31:49.354Z,3.41
2023-03-05T00:34:19.526Z,3.35
2023-03-05T00:36:53.084Z,3.31
2023-03-05T00:39:22.518Z,3.28
2023-03-05T00:41:51.184Z,3.26
2023-03-05T00:44:21.009Z,3.28
2023-03-05T00:46:50.355Z,3.28
2023-03-05T00:49:19.190Z,3.29
2023-03-05T00:51:48.302Z,3.27
2023-03-05T00:54:17.217Z,3.22
2023-03-05T00:56:46.739Z,3.18
2023-03-05T00:59:15.884Z,3.16
2023-03-05T01:01:45.419Z,3.13
2023-03-05T01:04:14.474Z,3.05
2023-03-05T01:06:45.417Z,3.00
2023-03-05T01:09:15.878Z,3.00
2023-03-05T01:11:44.436Z,2.95
2023-03-05T01:14:13.397Z,2.88
2023-03-05T01:16:42.595Z,2.78
2023-03-05T01:19:13.193Z,2.67
2023-03-05T01:21:42.849Z,2.69
2023-03-05T01:24:12.748Z,2.75
2023-03-05T01:26:41.424Z,2.80
2023-03-05T01:29:10.390Z,2.78
2023-03-05T01:31:39.402Z,2.72
2023-03-05T01:34:07.977Z,2.68
2023-03-05T01:36:37.075Z,2.65
2023-03-05T01:39:06.255Z,2.68
2023-03-05T01:41:34.946Z,2.71
2023-03-05T01:44:04.136Z,2.71
2023-03-05T01:46:35.581Z,2.70
2023-03-05T01:49:31.162Z,2.69
2023-03-05T01:52:20.172Z,2.64
2023-03-05T01:54:56.572Z,2.56
2023-03-05T01:57:32.779Z,2.55
2023-03-05T02:00:12.538Z,2.52
2023-03-05T02:02:47.290Z,2.43
2023-03-05T02:05:33.306Z,2.38
2023-03-05T02:08:06.141Z,2.27
2023-03-05T02:10:38.460Z,2.24
2023-03-05T02:13:10.100Z,2.23
2023-03-05T02:15:39.634Z,2.23
2023-03-05T02:18:09.975Z,2.21
2023-03-05T02:20:57.125Z,2.16
2023-03-05T02:23:28.681Z,2.17
2023-03-05T02:25:57.551Z,2.19
2023-03-05T02:28:58.996Z,2.24
2023-03-05T02:31:28.833Z,2.32
2023-03-05T02:34:00.171Z,2.36
2023-03-05T02:36:29.348Z,2.38
2023-03-05T02:38:59.582Z,2.40
2023-03-05T02:41:28.558Z,2.41
2023-03-05T02:43:57.971Z,2.46
2023-03-05T02:46:28.083Z,2.53
2023-03-05T02:48:56.737Z,2.57
2023-03-05T02:51:26.240Z,2.60
2023-03-05T02:53:55.420Z,2.57
2023-03-05T02:56:26.496Z,2.58
2023-03-05T02:58:55.634Z,2.58
2023-03-05T03:01:25.107Z,2.58
2023-03-05T03:03:54.959Z,2.58
2023-03-05T03:06:23.497Z,2.59
2023-03-05T03:08:52.813Z,2.61
2023-03-05T03:11:21.631Z,2.59
2023-03-05T03:13:50.269Z,2.56
2023-03-05T03:16:19.450Z,2.55
2023-03-05T03:18:49.126Z,2.53
2023-03-05T03:21:21.233Z,2.52
2023-03-05T03:23:50.621Z,2.50
2023-03-05T03:26:19.892Z,2.44
2023-03-05T03:28:48.680Z,2.40
2023-03-05T03:31:18.359Z,2.37
2023-03-05T03:33:46.894Z,2.36
2023-03-05T03:36:15.875Z,2.40
2023-03-05T03:38:45.217Z,2.42
2023-03-05T03:41:13.884Z,2.42
2023-03-05T03:43:42.579Z,2.41
2023-03-05T03:46:11.877Z,2.43
2023-03-05T03:48:40.491Z,2.47
2023-03-05T03:51:09.313Z,2.46
2023-03-05T03:53:38.515Z,2.47
2023-03-05T03:56:10.586Z,2.47
2023-03-05T03:58:39.665Z,2.46
2023-03-05T04:01:08.293Z,2.42
2023-03-05T04:03:37.163Z,2.37
2023-03-05T04:06:07.304Z,2.36
2023-03-05T04:08:36.410Z,2.38
2023-03-05T04:11:06.503Z,2.41
2023-03-05T04:13:35.622Z,2.42
2023-03-05T04:16:07.202Z,2.42
2023-03-05T04:18:36.280Z,2.39
2023-03-05T04:21:05.888Z,2.38
2023-03-05T04:23:34.824Z,2.40
2023-03-05T04:26:04.318Z,2.39
2023-03-05T04:28:33.842Z,2.35
2023-03-05T04:31:03.371Z,2.34
2023-03-05T04:33:32.566Z,2.34
2023-03-05T04:36:01.586Z,2.32
2023-03-05T04:38:30.233Z,2.30
2023-03-05T04:40:59.430Z,2.29
2023-03-05T04:43:28.053Z,2.27
2023-03-05T04:45:56.705Z,2.23
2023-03-05T04:48:25.643Z,2.26
2023-03-05T04:50:54.241Z,2.33
2023-03-05T04:53:23.047Z,2.37
2023-03-05T04:55:56.477Z,2.42
2023-03-05T04:58:26.118Z,2.48
2023-03-05T05:00:54.800Z,2.54
2023-03-05T05:03:23.748Z,2.55
2023-03-05T05:05:57.004Z,2.50
2023-03-05T05:08:27.275Z,2.47
2023-03-05T05:10:56.504Z,2.45
2023-03-05T05:13:26.208Z,2.45
2023-03-05T05:15:56.087Z,2.48
2023-03-05T05:18:25.660Z,2.46
2023-03-05T05:20:54.666Z,2.46
2023-03-05T05:23:24.232Z,2.51
2023-03-05T05:26:00.253Z,2.52
2023-03-05T05:28:29.673Z,2.53
2023-03-05T05:30:58.230Z,2.57
2023-03-05T05:33:27.719Z,2.60
2023-03-05T05:35:58.535Z,2.62
2023-03-05T05:38:27.168Z,2.62
2023-03-05T05:40:58.898Z,2.59
2023-03-05T05:43:30.289Z,2.59
2023-03-05T05:46:04.538Z,2.56
2023-03-05T05:48:35.399Z,2.52
2023-03-05T05:51:09.848Z,2.53
2023-03-05T05:53:39.071Z,2.55
2023-03-05T05:56:10.008Z,2.59
2023-03-05T05:58:40.820Z,2.62
2023-03-05T06:01:26.881Z,2.60
2023-03-05T06:03:56.657Z,2.54
2023-03-05T06:06:27.099Z,2.54
2023-03-05T06:08:56.687Z,2.50
2023-03-05T06:11:25.521Z,2.45
2023-03-05T06:13:55.096Z,2.42
2023-03-05T06:16:25.108Z,2.44
2023-03-05T06:18:54.043Z,2.43
2023-03-05T06:21:23.899Z,2.41
2023-03-05T06:23:52.692Z,2.39
2023-03-05T06:26:22.836Z,2.43
2023-03-05T06:29:01.754Z,2.46
2023-03-05T06:32:14.266Z,2.48
2023-03-05T06:34:33.325Z,2.52
2023-03-05T06:37:22.662Z,2.55
2023-03-05T06:39:51.914Z,2.52
2023-03-05T06:42:20.506Z,2.50
2023-03-05T06:44:49.691Z,2.45
2023-03-05T06:47:18.307Z,2.44
2023-03-05T06:49:47.134Z,2.47
2023-03-05T06:52:16.356Z,2.48
2023-03-05T06:54:45.274Z,2.51
2023-03-05T06:57:14.015Z,2.54
2023-03-05T06:59:43.332Z,2.56
2023-03-05T07:02:13.905Z,2.58
2023-03-05T07:04:44.102Z,2.59
2023-03-05T07:07:12.872Z,2.62
2023-03-05T07:09:44.747Z,2.66
2023-03-05T07:12:13.604Z,2.67
2023-03-05T07:14:42.291Z,2.65
2023-03-05T07:17:11.013Z,2.67
2023-03-05T07:19:39.943Z,2.70
2023-03-05T07:22:09.296Z,2.78
2023-03-05T07:24:38.067Z,2.84
2023-03-05T07:27:07.116Z,2.91
2023-03-05T07:29:36.660Z,3.00
2023-03-05T07:32:06.184Z,3.01
2023-03-05T07:34:37.366Z,3.05
2023-03-05T07:37:06.476Z,3.04
2023-03-05T07:39:34.998Z,3.00
2023-03-05T07:42:03.896Z,2.96
2023-03-05T07:44:39.447Z,2.98
2023-03-05T07:47:08.306Z,2.96
2023-03-05T07:49:37.011Z,2.93
2023-03-05T07:52:07.272Z,2.91
2023-03-05T07:54:39.191Z,2.87
2023-03-05T07:57:10.917Z,2.89
2023-03-05T07:59:39.900Z,2.87
2023-03-05T08:02:12.154Z,2.84
2023-03-05T08:04:43.456Z,2.92
2023-03-05T08:07:16.354Z,3.04
2023-03-05T08:09:45.263Z,3.15
2023-03-05T08:12:14.050Z,3.21
2023-03-05T08:14:42.832Z,3.29
2023-03-05T08:17:11.878Z,3.31
2023-03-05T08:19:40.535Z,3.32
2023-03-05T08:22:09.187Z,3.33
2023-03-05T08:24:37.894Z,3.41
2023-03-05T08:27:06.833Z,3.43
2023-03-05T08:29:35.435Z,3.39
2023-03-05T08:32:04.909Z,3.40
2023-03-05T08:34:33.952Z,3.38
2023-03-05T08:37:02.733Z,3.41
2023-03-05T08:39:31.618Z,3.45
2023-03-05T08:42:00.447Z,3.45
2023-03-05T08:44:29.128Z,3.54
2023-03-05T08:46:58.709Z,3.63
2023-03-05T08:49:27.759Z,3.75
2023-03-05T08:51:56.533Z,3.91
2023-03-05T08:54:25.415Z,4.27
2023-03-05T08:56:53.995Z,5.13
2023-03-05T08:59:23.451Z,6.09
2023-03-05T09:01:52.250Z,6.74
2023-03-05T09:04:21.303Z,6.71
2023-03-05T09:06:50.298Z,6.43
2023-03-05T09:09:21.921Z,6.17
2023-03-05T09:11:52.790Z,5.91
2023-03-05T09:14:21.678Z,5.65
2023-03-05T09:16:50.332Z,5.29
2023-03-05T09:19:19.555Z,5.03
2023-03-05T09:21:48.342Z,4.93
2023-03-05T09:24:16.882Z,4.86
2023-03-05T09:26:46.143Z,4.82
2023-03-05T09:29:14.925Z,4.80
2023-03-05T09:31:44.433Z,4.68
2023-03-05T09:34:13.403Z,4.67
2023-03-05T09:36:42.066Z,4.77
2023-03-05T09:39:10.708Z,4.81
2023-03-05T09:42:10.100Z,4.82
2023-03-05T09:45:16.627Z,4.85
2023-03-05T09:48:13.253Z,4.96
2023-03-05T09:50:54.571Z,5.00
2023-03-05T09:53:35.584Z,5.03
2023-03-05T09:56:26.085Z,4.96
2023-03-05T09:59:05.029Z,4.82
2023-03-05T10:01:42.342Z,4.79
2023-03-05T10:04:16.746Z,4.82
2023-03-05T10:07:21.516Z,4.91
2023-03-05T10:10:03.762Z,5.01
2023-03-05T10:12:43.112Z,5.03
2023-03-05T10:15:15.250Z,4.99
2023-03-05T10:18:06.611Z,4.98
2023-03-05T10:20:42.392Z,4.98
2023-03-05T10:23:32.138Z,4.90
2023-03-05T10:26:10.350Z,4.86
2023-03-05T10:29:04.751Z,4.81
2023-03-05T10:31:36.989Z,4.80
2023-03-05T10:34:43.460Z,4.80
2023-03-05T10:37:39.459Z,4.82
2023-03-05T10:40:43.639Z,4.84
2023-03-05T10:43:34.218Z,4.91
2023-03-05T10:46:04.496Z,5.01
2023-03-05T10:48:39.556Z,5.13
2023-03-05T10:51:33.883Z,5.22
2023-03-05T10:54:19.432Z,5.39
2023-03-05T10:56:48.364Z,5.49
2023-03-05T10:59:19.187Z,5.52
2023-03-05T11:02:11.138Z,5.62
2023-03-05T11:04:41.148Z,5.79
2023-03-05T11:07:16.473Z,5.87
2023-03-05T11:10:04.003Z,5.85
2023-03-05T11:12:38.329Z,5.88
2023-03-05T11:15:10.563Z,5.88
2023-03-05T11:17:43.749Z,5.80
2023-03-05T11:20:34.765Z,5.87
2023-03-05T11:23:13.088Z,5.98
2023-03-05T11:26:04.511Z,6.01
2023-03-05T11:28:38.011Z,6.02
2023-03-05T11:31:33.729Z,6.05
2023-03-05T11:34:26.977Z,6.19
2023-03-05T11:36:56.610Z,6.21
2023-03-05T11:39:26.828Z,6.23
2023-03-05T11:41:58.283Z,6.25
2023-03-05T11:44:35.774Z,6.16
2023-03-05T11:47:26.033Z,6.10
2023-03-05T11:50:03.573Z,6.13
2023-03-05T11:52:42.767Z,6.14
2023-03-05T11:55:17.711Z,6.09
2023-03-05T11:58:08.003Z,5.99
2023-03-05T12:00:39.031Z,6.01
2023-03-05T12:03:31.141Z,5.94
2023-03-05T12:06:38.023Z,5.86
2023-03-05T12:09:26.983Z,5.84
2023-03-05T12:12:21.642Z,5.78
2023-03-05T12:15:06.486Z,5.75
2023-03-05T12:17:57.842Z,5.71
2023-03-05T12:21:00.367Z,5.62
2023-03-05T12:23:30.322Z,5.62
2023-03-05T12:25:59.683Z,5.65
2023-03-05T12:28:34.475Z,5.71
2023-03-05T12:31:07.784Z,5.73
2023-03-05T12:33:39.517Z,5.72
2023-03-05T12:36:23.680Z,5.73
2023-03-05T12:38:57.071Z,5.70
2023-03-05T12:41:28.066Z,5.73
2023-03-05T12:44:06.117Z,5.76
2023-03-05T12:46:45.462Z,5.77
2023-03-05T12:49:23.878Z,5.80
2023-03-05T12:51:54.785Z,5.82
2023-03-05T12:54:29.833Z,5.82
2023-03-05T12:57:15.539Z,5.85
2023-03-05T12:59:50.649Z,5.78
2023-03-05T13:02:29.177Z,5.79
2023-03-05T13:05:01.959Z,5.79
2023-03-05T13:07:30.980Z,5.76
2023-03-05T13:10:00.129Z,5.79
2023-03-05T13:12:30.872Z,5.84
2023-03-05T13:15:02.032Z,5.85
2023-03-05T13:17:51.650Z,5.85
2023-03-05T13:20:40.236Z,5.87
2023-03-05T13:23:23.295Z,5.96
2023-03-05T13:25:59.847Z,5.99
2023-03-05T13:28:30.006Z,5.94
2023-03-05T13:31:02.668Z,5.86
2023-03-05T13:33:36.764Z,5.80
2023-03-05T13:36:07.015Z,5.73
2023-03-05T13:38:45.448Z,5.64
2023-03-05T13:41:14.821Z,5.54
2023-03-05T13:44:01.453Z,5.39
2023-03-05T13:46:36.277Z,5.25
2023-03-05T13:49:20.298Z,5.20
2023-03-05T13:52:00.390Z,5.17
2023-03-05T13:54:30.352Z,5.09
2023-03-05T13:57:08.200Z,5.02
2023-03-05T13:59:41.070Z,4.92
2023-03-05T14:02:20.869Z,4.84
2023-03-05T14:04:50.914Z,4.74
2023-03-05T14:07:28.502Z,4.59
2023-03-05T14:09:58.025Z,4.48
2023-03-05T14:12:37.354Z,4.44
2023-03-05T14:15:24.064Z,4.47
2023-03-05T14:17:53.777Z,4.55
2023-03-05T14:20:28.030Z,4.62
2023-03-05T14:23:27.442Z,4.74
2023-03-05T14:26:23.700Z,4.87
2023-03-05T14:28:58.500Z,4.90
2023-03-05T14:31:29.705Z,4.90
2023-03-05T14:34:07.531Z,4.92
2023-03-05T14:36:37.042Z,4.93
2023-03-05T14:39:05.861Z,4.93
2023-03-05T14:41:36.457Z,4.95
2023-03-05T14:44:16.808Z,4.95
2023-03-05T14:46:50.265Z,4.88
2023-03-05T14:49:19.527Z,4.79
2023-03-05T14:51:48.421Z,4.70
2023-03-05T14:54:26.884Z,4.66
2023-03-05T14:56:56.001Z,4.61
2023-03-05T14:59:24.732Z,4.58
2023-03-05T15:01:53.727Z,4.58
2023-03-05T15:04:23.141Z,4.52
2023-03-05T15:06:53.586Z,4.46
2023-03-05T15:09:23.326Z,4.43
2023-03-05T15:11:52.435Z,4.41
2023-03-05T15:14:21.652Z,4.41
2023-03-05T15:16:50.613Z,4.42
2023-03-05T15:19:19.670Z,4.38
2023-03-05T15:21:48.818Z,4.30
2023-03-05T15:24:20.267Z,4.25
2023-03-05T15:26:50.265Z,4.23
2023-03-05T15:29:19.004Z,4.23
2023-03-05T15:31:47.951Z,4.24
2023-03-05T15:34:16.645Z,4.23
2023-03-05T15:36:47.974Z,4.22
2023-03-05T15:39:16.616Z,4.17
2023-03-05T15:41:45.415Z,4.17
2023-03-05T15:44:14.038Z,4.17
2023-03-05T15:46:42.895Z,4.17
2023-03-05T15:49:25.878Z,4.19
2023-03-05T15:51:55.904Z,4.23
2023-03-05T15:54:26.523Z,4.26
2023-03-05T15:56:55.257Z,4.28
2023-03-05T15:59:24.196Z,4.24
2023-03-05T16:01:53.425Z,4.23
2023-03-05T16:04:22.243Z,4.24
2023-03-05T16:06:51.305Z,4.22
2023-03-05T16:09:21.635Z,4.15
2023-03-05T16:11:51.720Z,4.10
2023-03-05T16:14:25.252Z,4.08
2023-03-05T16:16:57.228Z,4.07
2023-03-05T16:19:27.750Z,4.01
2023-03-05T16:21:56.827Z,3.97
2023-03-05T16:24:25.390Z,3.94
2023-03-05T16:26:54.707Z,3.94
2023-03-05T16:29:23.548Z,3.94
2023-03-05T16:31:52.279Z,3.95
2023-03-05T16:34:21.545Z,3.96
2023-03-05T16:36:53.694Z,3.95
2023-03-05T16:39:23.146Z,3.88
2023-03-05T16:41:52.960Z,3.84
2023-03-05T16:44:21.832Z,3.83
2023-03-05T16:46:54.343Z,3.81
2023-03-05T16:49:25.074Z,3.77
2023-03-05T16:51:53.893Z,3.76
2023-03-05T16:54:22.658Z,3.77
2023-03-05T16:56:52.107Z,3.79
2023-03-05T16:59:21.366Z,3.81
2023-03-05T17:01:51.114Z,3.83
2023-03-05T17:04:20.358Z,3.84
2023-03-05T17:06:49.669Z,3.85
2023-03-05T17:09:24.137Z,3.82
2023-03-05T17:11:54.788Z,3.78
2023-03-05T17:14:23.452Z,3.77
2023-03-05T17:16:52.208Z,3.71
2023-03-05T17:19:21.758Z,3.69
2023-03-05T17:21:52.607Z,3.68
2023-03-05T17:24:22.305Z,3.65
2023-03-05T17:26:52.172Z,3.59
2023-03-05T17:29:21.803Z,3.56
2023-03-05T17:31:54.150Z,3.58
2023-03-05T17:34:35.619Z,3.64
2023-03-05T17:37:06.373Z,3.67
2023-03-05T17:39:35.158Z,3.65
2023-03-05T17:42:03.907Z,3.66
2023-03-05T17:44:33.369Z,3.69
2023-03-05T17:47:02.051Z,3.68
2023-03-05T17:49:30.662Z,3.64
2023-03-05T17:52:00.097Z,3.52
2023-03-05T17:54:28.825Z,3.35
2023-03-05T17:56:58.276Z,3.18
2023-03-05T17:59:27.739Z,3.06
2023-03-05T18:01:56.314Z,3.00
2023-03-05T18:04:38.031Z,2.88
2023-03-05T18:07:30.673Z,2.67
2023-03-05T18:10:27.215Z,2.48
2023-03-05T18:13:16.901Z,2.34
2023-03-05T18:16:14.141Z,2.23
2023-03-05T18:19:06.701Z,2.12
2023-03-05T18:22:08.559Z,2.01
2023-03-05T18:24:55.080Z,1.97
2023-03-05T18:27:50.987Z,1.94
2023-03-05T18:30:40.059Z,1.90
2023-03-05T18:33:44.031Z,1.87
2023-03-05T18:36:35.722Z,1.91
2023-03-05T18:39:26.229Z,1.96
2023-03-05T18:42:18.133Z,2.06
2023-03-05T18:44:54.616Z,2.10
2023-03-05T18:47:24.060Z,2.08
2023-03-05T18:49:54.068Z,2.16
2023-03-05T18:52:22.906Z,2.20
2023-03-05T18:54:51.542Z,2.22
2023-03-05T18:57:20.415Z,2.20
2023-03-05T18:59:49.602Z,2.19
2023-03-05T19:02:20.778Z,2.20
2023-03-05T19:04:49.926Z,2.21
2023-03-05T19:07:19.051Z,2.21
2023-03-05T19:09:59.073Z,2.24
2023-03-05T19:12:32.595Z,2.28
2023-03-05T19:15:03.043Z,2.26
2023-03-05T19:17:32.504Z,2.26
2023-03-05T19:20:02.925Z,2.24
2023-03-05T19:22:32.843Z,2.30
2023-03-05T19:25:02.078Z,2.36
2023-03-05T19:27:30.770Z,2.35
2023-03-05T19:30:00.382Z,2.37
2023-03-05T19:32:30.679Z,2.39
2023-03-05T19:35:06.047Z,2.38
2023-03-05T19:37:35.345Z,2.36
2023-03-05T19:40:04.381Z,2.30
2023-03-05T19:42:36.883Z,2.26
2023-03-05T19:45:10.154Z,2.28
2023-03-05T19:47:41.247Z,2.26
2023-03-05T19:50:14.030Z,2.24
2023-03-05T19:52:43.608Z,2.22
2023-03-05T19:55:12.828Z,2.16
2023-03-05T19:57:41.402Z,2.14
2023-03-05T20:00:12.977Z,2.06
2023-03-05T20:02:43.060Z,1.98
2023-03-05T20:05:12.758Z,1.91
2023-03-05T20:07:41.629Z,1.82
2023-03-05T20:10:11.440Z,1.77
2023-03-05T20:12:40.213Z,1.71
2023-03-05T20:15:09.372Z,1.69
2023-03-05T20:17:38.546Z,1.67
2023-03-05T20:20:10.656Z,1.68
2023-03-05T20:22:43.503Z,1.75
2023-03-05T20:25:14.205Z,1.79
2023-03-05T20:27:44.338Z,1.77
2023-03-05T20:30:18.281Z,1.74
2023-03-05T20:32:48.312Z,1.75
2023-03-05T20:35:18.268Z,1.75
2023-03-05T20:38:29.964Z,1.70
2023-03-05T20:41:01.472Z,1.65
2023-03-05T20:43:33.863Z,1.65
2023-03-05T20:46:04.120Z,1.66
2023-03-05T20:48:34.894Z,1.60
2023-03-05T20:51:15.019Z,1.56
2023-03-05T20:53:46.505Z,1.55
2023-03-05T20:56:17.036Z,1.52
2023-03-05T20:58:45.708Z,1.48
2023-03-05T21:01:14.703Z,1.47
2023-03-05T21:03:43.496Z,1.57
2023-03-05T21:06:12.211Z,1.68
2023-03-05T21:08:44.484Z,1.67
2023-03-05T21:11:14.201Z,1.64
2023-03-05T21:13:44.650Z,1.58
2023-03-05T21:16:20.152Z,1.59
2023-03-05T21:18:49.582Z,1.64
2023-03-05T21:21:18.840Z,1.63
2023-03-05T21:23:48.174Z,1.59
2023-03-05T21:26:17.195Z,1.61
2023-03-05T21:28:46.797Z,1.61
2023-03-05T21:31:19.442Z,1.66
2023-03-05T21:33:49.865Z,1.65
2023-03-05T21:36:19.036Z,1.64
2023-03-05T21:38:49.933Z,1.66
2023-03-05T21:41:20.826Z,1.72
2023-03-05T21:43:49.468Z,1.75
2023-03-05T21:46:18.262Z,1.77
2023-03-05T21:48:47.403Z,1.75
2023-03-05T21:51:31.105Z,1.73
2023-03-05T21:54:12.119Z,1.71
2023-03-05T21:56:41.693Z,1.70
2023-03-05T21:59:10.404Z,1.69
2023-03-05T22:01:39.009Z,1.65
2023-03-05T22:04:08.258Z,1.61
2023-03-05T22:06:37.236Z,1.64
2023-03-05T22:09:05.781Z,1.68
2023-03-05T22:11:34.774Z,1.72
2023-03-05T22:14:03.812Z,1.76
2023-03-05T22:16:32.482Z,1.78
2023-03-05T22:19:02.923Z,1.79
2023-03-05T22:21:32.227Z,1.82
2023-03-05T22:24:01.019Z,1.82
2023-03-05T22:26:39.019Z,1.82
2023-03-05T22:29:11.534Z,1.79
2023-03-05T22:31:41.261Z,1.73
2023-03-05T22:34:10.471Z,1.64
2023-03-05T22:36:39.431Z,1.58
2023-03-05T22:39:08.596Z,1.51
2023-03-05T22:41:37.449Z,1.39
2023-03-05T22:44:08.250Z,1.29
2023-03-05T22:46:37.186Z,1.24
2023-03-05T22:49:08.678Z,1.20
2023-03-05T22:51:37.203Z,1.15
2023-03-05T22:54:06.657Z,1.12
2023-03-05T22:56:36.628Z,1.06
2023-03-05T22:59:05.294Z,0.97
2023-03-05T23:01:34.322Z,0.79
2023-03-05T23:04:53.426Z,0.58
2023-03-05T23:07:31.048Z,0.49
2023-03-05T23:10:09.815Z,0.38
2023-03-05T23:12:44.654Z,0.35
2023-03-05T23:15:16.546Z,0.33
2023-03-05T23:17:46.216Z,0.33
2023-03-05T23:20:21.068Z,0.32
2023-03-05T23:22:53.423Z,0.20
2023-03-05T23:25:25.054Z,0.21
2023-03-05T23:27:55.213Z,0.24
2023-03-05T23:30:25.199Z,0.28
2023-03-05T23:33:03.211Z,0.29
2023-03-05T23:35:33.506Z,0.25
2023-03-05T23:38:03.673Z,0.19
2023-03-05T23:40:33.663Z,0.12
2023-03-05T23:43:03.432Z,0.13
2023-03-05T23:45:32.844Z,0.17
2023-03-05T23:48:01.818Z,0.20
2023-03-05T23:50:34.032Z,0.20
2023-03-05T23:53:03.782Z,0.24
2023-03-05T23:55:34.137Z,0.28
2023-03-05T23:58:03.647Z,0.28
